Time;durP1;ratioP1;P1;durP2;ratioP2;P2;SDS_P1;SDS_P2;PMS_P1;PMS_P2;Temp;Humidity;BMP_temperature;BMP_pressure;BME280_temperature;BME280_humidity;BME280_pressure;Samples;Min_cycle;Max_cycle;Signal;HPM_P1;HPM_P2
2022/05/02 00:02:24;;;;;;;11.17;6.73;;;;;;;8.99;80.44;98911.31;5027694;28;20178;-89
2022/05/02 00:04:50;;;;;;;9.70;6.30;;;;;;;9.62;80.50;99001.53;5028093;28;20193;-90
2022/05/02 00:07:16;;;;;;;11.73;6.23;;;;;;;10.40;80.62;99163.25;5027743;28;20174;-89
2022/05/02 00:09:42;;;;;;;10.00;6.63;;;;;;;8.82;80.76;98873.63;5026745;28;20177;-89
2022/05/02 00:12:09;;;;;;;8.90;6.70;;;;;;;10.34;81.70;99125.91;5026535;28;20260;-89
2022/05/02 00:14:35;;;;;;;9.97;7.27;;;;;;;9.33;82.33;98967.50;5027710;28;20162;-89
2022/05/02 00:17:00;;;;;;;9.07;7.20;;;;;;;10.39;82.52;99151.38;5026248;28;20170;-90
2022/05/02 00:19:26;;;;;;;12.13;7.57;;;;;;;10.49;82.63;99153.50;5026002;28;20174;-89
2022/05/02 00:21:52;;;;;;;12.27;8.00;;;;;;;11.79;83.79;99389.22;5024900;28;20177;-89
2022/05/02 00:24:17;;;;;;;12.33;7.67;;;;;;;10.28;83.82;99148.41;5025126;28;20701;-90
2022/05/02 00:26:43;;;;;;;11.87;7.87;;;;;;;9.12;84.40;98964.94;5024427;28;20753;-88
2022/05/02 00:29:08;;;;;;;13.23;7.93;;;;;;;8.41;83.58;98814.66;5027005;28;20186;-88
2022/05/02 00:31:34;;;;;;;11.97;7.70;;;;;;;8.98;83.40;98920.59;5029157;28;20189;-89
2022/05/02 00:33:59;;;;;;;11.37;7.10;;;;;;;10.42;83.05;99133.78;5028787;28;20174;-89
2022/05/02 00:36:25;;;;;;;14.27;8.00;;;;;;;11.96;83.28;99421.16;5027790;28;20241;-90
2022/05/02 00:38:51;;;;;;;11.43;8.00;;;;;;;7.99;84.17;98725.44;5024894;28;20265;-90
2022/05/02 00:41:16;;;;;;;11.70;7.93;;;;;;;8.74;84.36;98882.53;5023432;28;20171;-90
2022/05/02 00:43:42;;;;;;;18.20;7.47;;;;;;;8.09;83.65;98763.72;5024449;28;20174;-89
2022/05/02 00:46:18;;;;;;;11.50;7.70;;;;;;;12.57;84.56;99512.31;5027160;28;20219;-89
2022/05/02 00:48:45;;;;;;;9.70;7.67;;;;;;;9.73;84.34;99028.97;5043417;28;20166;-89
2022/05/02 00:51:10;;;;;;;10.90;7.70;;;;;;;8.42;84.17;98811.34;5025246;28;20178;-90
2022/05/02 00:53:36;;;;;;;11.67;8.07;;;;;;;8.64;84.12;98855.22;5024306;28;20547;-89
2022/05/02 00:56:03;;;;;;;10.83;7.67;;;;;;;11.67;85.51;99386.19;5023554;28;20196;-89
2022/05/02 00:58:29;;;;;;;12.47;8.50;;;;;;;8.52;86.21;98842.06;5027086;28;20177;-90
2022/05/02 01:00:54;;;;;;;10.97;7.93;;;;;;;8.48;86.18;98867.09;5025891;28;20174;-89
2022/05/02 01:03:20;;;;;;;11.77;8.10;;;;;;;9.90;86.89;99108.88;5025102;28;20170;-89
2022/05/02 01:08:32;;;;;;;10.43;8.23;;;;;;;10.52;86.17;99199.19;5042279;28;20228;-89
2022/05/02 01:10:58;;;;;;;13.17;8.50;;;;;;;9.88;86.23;99100.38;5025778;28;20166;-90
2022/05/02 01:13:50;;;;;;;14.90;8.83;;;;;;;8.64;87.18;98882.09;5040578;28;20642;-89
2022/05/02 01:16:27;;;;;;;12.37;8.73;;;;;;;10.25;86.82;99190.44;4997472;28;20822;-88
2022/05/02 01:18:55;;;;;;;11.87;8.63;;;;;;;12.10;87.52;99500.34;4997646;28;20179;-89
2022/05/02 01:21:23;;;;;;;12.50;8.83;;;;;;;10.12;87.75;99160.34;4981609;28;20198;-89
2022/05/02 01:23:51;;;;;;;14.27;9.00;;;;;;;9.60;88.75;99072.22;4980015;28;20640;-89
2022/05/02 01:26:17;;;;;;;14.07;8.70;;;;;;;9.36;88.69;99019.00;4997084;28;20241;-89
2022/05/02 01:28:47;;;;;;;13.47;8.80;;;;;;;10.15;88.52;99165.56;4998250;28;20175;-89
2022/05/02 01:31:15;;;;;;;12.37;9.03;;;;;;;9.76;88.60;99094.81;4982707;28;20186;-89
2022/05/02 01:33:41;;;;;;;11.77;8.57;;;;;;;10.62;89.98;99256.94;4982393;28;20191;-90
2022/05/02 01:36:08;;;;;;;11.83;9.00;;;;;;;8.77;89.38;98934.81;4978600;28;20183;-89
2022/05/02 01:38:35;;;;;;;12.77;9.33;;;;;;;10.38;89.15;99207.88;4966662;28;20195;-89
2022/05/02 01:41:02;;;;;;;14.17;9.07;;;;;;;9.47;88.53;99038.00;4973519;28;20270;-90
2022/05/02 01:43:27;;;;;;;13.43;9.53;;;;;;;9.20;88.51;99024.19;4981211;28;20596;-89
2022/05/02 01:45:53;;;;;;;16.93;9.43;;;;;;;8.30;88.80;98867.16;4997426;28;20285;-89
2022/05/02 01:48:18;;;;;;;14.67;8.90;;;;;;;8.30;88.61;98859.59;4978814;28;20188;-89
2022/05/02 01:50:44;;;;;;;13.60;9.53;;;;;;;8.00;89.04;98802.75;4979190;28;20187;-90
2022/05/02 01:53:09;;;;;;;15.47;10.10;;;;;;;7.35;89.80;98684.84;5001191;28;20190;-89
2022/05/02 01:55:35;;;;;;;13.90;9.47;;;;;;;7.46;91.23;98726.47;5019492;28;20655;-89
2022/05/02 01:58:00;;;;;;;15.43;9.50;;;;;;;10.23;91.93;99210.63;5015552;28;20178;-90
2022/05/02 02:00:26;;;;;;;15.60;9.77;;;;;;;11.73;92.87;99488.75;5021108;28;20186;-89
2022/05/02 02:02:51;;;;;;;13.73;9.43;;;;;;;8.14;92.55;98857.16;5025571;28;20166;-88
2022/05/02 02:08:01;;;;;;;13.97;9.90;;;;;;;10.59;92.26;99234.91;5047084;28;20216;-90
2022/05/02 02:10:26;;;;;;;15.20;9.83;;;;;;;9.03;92.76;98977.19;5046361;28;20182;-88
2022/05/02 02:12:52;;;;;;;15.03;9.50;;;;;;;8.82;92.71;98934.19;5025038;28;20169;-89
2022/05/02 02:15:17;;;;;;;15.83;9.93;;;;;;;7.88;92.38;98812.31;5025285;28;20162;-89
2022/05/02 02:17:44;;;;;;;15.10;10.00;;;;;;;7.98;93.51;98809.41;5025510;28;20188;-90
2022/05/02 02:20:11;;;;;;;14.37;10.00;;;;;;;7.50;92.68;98733.38;5024872;28;20253;-89
2022/05/02 02:22:36;;;;;;;13.83;10.17;;;;;;;7.78;92.97;98779.94;5042627;28;20170;-88
2022/05/02 02:25:04;;;;;;;15.33;10.00;;;;;;;8.16;92.68;98830.34;5041099;28;20247;-90
2022/05/02 02:27:29;;;;;;;12.43;9.63;;;;;;;9.15;93.44;98999.53;5041859;28;20190;-90
2022/05/02 02:29:55;;;;;;;15.40;10.50;;;;;;;6.94;93.19;98606.66;5059062;28;20533;-90
2022/05/02 02:32:21;;;;;;;15.70;10.47;;;;;;;8.25;93.08;98856.84;5023996;28;20610;-88
2022/05/02 02:34:46;;;;;;;14.93;10.67;;;;;;;8.05;93.86;98836.59;5023712;28;20639;-89
2022/05/02 02:37:12;;;;;;;16.33;11.20;;;;;;;10.59;94.96;99277.94;5023432;28;20162;-89
2022/05/02 02:39:37;;;;;;;17.00;11.63;;;;;;;11.45;95.35;99403.88;5024393;28;20166;-89
2022/05/02 02:42:03;;;;;;;15.80;11.87;;;;;;;9.13;94.23;99018.81;5022390;28;20166;-89
2022/05/02 02:44:28;;;;;;;14.77;10.80;;;;;;;10.75;93.88;99268.44;5023335;28;20646;-90
2022/05/02 02:46:53;;;;;;;15.10;10.60;;;;;;;8.05;95.47;98831.53;5024515;28;20181;-87
2022/05/02 02:49:19;;;;;;;19.33;12.80;;;;;;;6.90;94.95;98637.47;5025122;28;20224;-89
2022/05/02 02:51:44;;;;;;;20.90;13.47;;;;;;;9.94;95.41;99216.94;5024723;28;20181;-89
2022/05/02 02:54:10;;;;;;;19.60;12.60;;;;;;;7.75;94.16;98827.69;5058442;28;20181;-89
2022/05/02 02:56:35;;;;;;;16.90;12.13;;;;;;;10.60;95.63;99349.69;5025496;28;20170;-89
2022/05/02 02:59:01;;;;;;;24.20;12.33;;;;;;;7.51;96.20;98834.97;5061584;28;20558;-89
2022/05/02 03:01:27;;;;;;;20.80;12.00;;;;;;;7.81;97.32;98903.53;5042853;28;20537;-89
2022/05/02 03:03:53;;;;;;;21.37;12.33;;;;;;;8.05;98.26;98952.53;5045481;28;20253;-88
2022/05/02 03:06:18;;;;;;;19.70;12.23;;;;;;;8.79;98.98;99060.25;5045707;28;20240;-88
2022/05/02 03:08:44;;;;;;;17.27;10.70;;;;;;;9.28;99.81;99156.75;5024366;28;20200;-90
2022/05/02 03:11:10;;;;;;;20.53;11.50;;;;;;;8.11;100.00;98983.06;5021742;28;20190;-89
2022/05/02 03:13:36;;;;;;;18.27;10.87;;;;;;;6.83;100.00;98783.91;5018037;28;20178;-89
2022/05/02 03:16:03;;;;;;;19.77;11.40;;;;;;;7.70;100.00;98924.06;5008042;28;20200;-90
2022/05/02 03:18:28;;;;;;;20.37;11.63;;;;;;;5.84;100.00;98622.31;5006635;28;20175;-88
2022/05/02 03:20:54;;;;;;;21.03;12.20;;;;;;;6.27;100.00;98709.09;5022304;28;20568;-88
2022/05/02 03:23:20;;;;;;;21.20;13.30;;;;;;;7.54;100.00;98933.31;5023709;28;20288;-88
2022/05/02 03:25:46;;;;;;;25.80;13.73;;;;;;;6.51;100.00;98727.88;5023587;28;20221;-89
2022/05/02 03:28:12;;;;;;;28.57;13.13;;;;;;;8.26;100.00;99035.09;5041134;28;20178;-89
2022/05/02 03:30:38;;;;;;;37.33;14.23;;;;;;;7.07;100.00;98823.69;5021994;28;20178;-89
2022/05/02 03:33:03;;;;;;;25.23;13.30;;;;;;;7.03;100.00;98821.78;5046177;28;20174;-88
2022/05/02 03:35:30;;;;;;;22.87;12.17;;;;;;;9.02;100.00;99186.66;5046948;28;20174;-89
2022/05/02 03:37:56;;;;;;;27.27;12.40;;;;;;;6.14;100.00;98674.09;5047592;28;20253;-90
2022/05/02 03:40:21;;;;;;;31.03;12.70;;;;;;;10.01;100.00;99340.31;5043528;28;20177;-89
2022/05/02 03:42:47;;;;;;;28.50;12.97;;;;;;;6.27;100.00;98652.94;5027348;28;20178;-88
2022/05/02 03:45:12;;;;;;;23.53;13.87;;;;;;;9.23;100.00;99170.81;5044839;28;20202;-89
2022/05/02 03:47:38;;;;;;;21.70;12.73;;;;;;;6.32;100.00;98646.47;5022194;28;20352;-89
2022/05/02 03:50:04;;;;;;;22.73;13.07;;;;;;;5.98;100.00;98592.91;5024324;28;20253;-89
2022/05/02 03:52:30;;;;;;;19.83;13.00;;;;;;;6.21;100.00;98617.44;5026321;28;20174;-89
2022/05/02 03:54:56;;;;;;;21.53;12.77;;;;;;;7.34;100.00;98831.66;5028469;28;20174;-89
2022/05/02 03:57:22;;;;;;;20.53;12.67;;;;;;;6.84;100.00;98742.88;5036086;28;20162;-88
2022/05/02 03:59:48;;;;;;;22.17;12.70;;;;;;;6.66;100.00;98689.16;5033604;28;20159;-93
2022/05/02 04:02:14;;;;;;;20.53;12.30;;;;;;;7.27;100.00;98780.97;5033893;28;20244;-90
2022/05/02 04:04:40;;;;;;;22.27;12.37;;;;;;;5.99;99.93;98554.44;5028253;28;20190;-90
2022/05/02 04:07:07;;;;;;;22.43;12.57;;;;;;;6.75;99.22;98693.00;5034147;28;20185;-92
2022/05/02 04:09:41;;;;;;;22.20;12.20;;;;;;;10.78;99.67;99322.59;5031897;28;20253;-92
2022/05/02 04:12:08;;;;;;;23.67;12.70;;;;;;;10.11;99.17;99194.03;5032897;28;20186;-89
2022/05/02 04:14:33;;;;;;;26.33;12.93;;;;;;;10.39;98.09;99232.34;5024870;28;20174;-88
2022/05/02 04:16:59;;;;;;;19.73;13.17;;;;;;;7.95;97.40;98789.97;5041844;28;20551;-89
2022/05/02 04:19:24;;;;;;;27.60;13.00;;;;;;;8.29;96.40;98812.50;5024914;28;20705;-90
2022/05/02 04:21:50;;;;;;;22.97;13.00;;;;;;;9.52;96.91;99007.88;5024598;28;20182;-89
2022/05/02 04:24:15;;;;;;;24.80;13.07;;;;;;;8.68;95.41;98862.09;5023886;28;20222;-90
2022/05/02 04:26:41;;;;;;;28.23;13.37;;;;;;;8.11;95.21;98736.91;5025341;28;20191;-89
2022/05/02 04:29:06;;;;;;;23.60;12.80;;;;;;;10.13;94.33;99071.06;5022155;28;20182;-90
2022/05/02 04:31:32;;;;;;;42.37;23.63;;;;;;;8.54;94.43;98792.53;5023515;28;20273;-89
2022/05/02 04:33:57;;;;;;;27.63;14.50;;;;;;;8.18;93.86;98695.19;5025933;28;20170;-90
2022/05/02 04:36:23;;;;;;;18.53;11.40;;;;;;;12.28;91.69;99392.78;5026935;28;20201;-89
2022/05/02 04:38:48;;;;;;;23.90;12.80;;;;;;;8.56;90.54;98744.69;5024424;28;20241;-90
2022/05/02 04:41:14;;;;;;;17.63;11.60;;;;;;;8.24;89.12;98648.38;5025656;28;20651;-90
2022/05/02 04:43:43;;;;;;;16.87;10.50;;;;;;;11.02;87.80;99103.22;5027955;28;20173;-90
2022/05/02 04:46:09;;;;;;;14.53;10.70;;;;;;;10.60;87.11;99020.63;5027611;28;20197;-89
2022/05/02 04:48:35;;;;;;;21.27;10.87;;;;;;;10.73;85.12;99014.34;5028316;28;20177;-90
2022/05/02 04:51:00;;;;;;;16.03;10.23;;;;;;;9.05;82.91;98671.75;5028660;28;20174;-89
2022/05/02 04:53:26;;;;;;;14.90;9.73;;;;;;;8.69;81.98;98610.66;5045565;28;20166;-90
2022/05/02 04:55:52;;;;;;;12.63;8.97;;;;;;;10.29;80.77;98860.91;5027367;28;20170;-88
2022/05/02 04:58:17;;;;;;;13.60;8.67;;;;;;;10.34;78.81;98818.91;5026042;28;20178;-90
2022/05/02 05:00:44;;;;;;;12.93;8.60;;;;;;;10.27;76.54;98763.84;5039593;28;20205;-89
2022/05/02 05:03:10;;;;;;;13.37;9.03;;;;;;;11.92;76.56;99061.63;5026202;28;20181;-88
2022/05/02 05:05:35;;;;;;;11.27;8.17;;;;;;;10.43;74.65;98783.81;5043844;28;20197;-88
2022/05/02 05:08:01;;;;;;;13.73;8.20;;;;;;;10.09;74.73;98764.91;5026566;28;20504;-88
2022/05/02 05:10:27;;;;;;;12.60;8.47;;;;;;;10.70;73.97;98837.91;5021096;28;20236;-88
2022/05/02 05:12:55;;;;;;;12.30;8.10;;;;;;;14.28;74.11;99434.22;5021967;28;20643;-88
2022/05/02 05:18:28;;;;;;;13.27;8.40;;;;;;;14.14;74.54;99439.78;5041418;28;20177;-87
2022/05/02 05:21:07;;;;;;;12.47;8.50;;;;;;;13.22;74.21;99285.94;5031020;28;20186;-88
2022/05/02 05:24:01;;;;;;;11.70;7.77;;;;;;;14.17;74.25;99444.09;5021084;28;20709;-89
2022/05/02 05:26:52;;;;;;;14.03;7.93;;;;;;;13.17;74.47;99287.47;5020524;28;20233;-88
2022/05/02 05:29:18;;;;;;;10.73;7.67;;;;;;;14.19;74.43;99439.91;4975189;28;20262;-89
2022/05/02 05:31:57;;;;;;;10.33;8.07;;;;;;;14.02;74.41;99428.34;4958995;28;20200;-90
2022/05/02 05:34:44;;;;;;;11.37;8.43;;;;;;;14.16;75.34;99427.06;4962025;28;20570;-87
2022/05/02 05:37:51;;;;;;;10.80;8.27;;;;;;;14.14;74.22;99431.28;4957592;28;20204;-89
2022/05/02 05:40:33;;;;;;;13.93;8.20;;;;;;;14.19;74.33;99432.25;4919851;29;20196;-89
2022/05/02 05:43:26;;;;;;;12.47;7.87;;;;;;;14.42;72.39;99444.00;4946572;29;20182;-89
2022/05/02 05:46:07;;;;;;;12.30;8.10;;;;;;;14.19;72.84;99439.91;4956141;28;20221;-90
2022/05/02 05:48:37;;;;;;;11.67;7.87;;;;;;;14.18;73.46;99445.81;4944826;29;20209;-90
2022/05/02 05:51:18;;;;;;;16.27;8.27;;;;;;;13.91;74.46;99447.50;4939263;29;20201;-90
2022/05/02 05:54:20;;;;;;;11.20;8.00;;;;;;;13.81;75.97;99451.47;4943465;29;20220;-90
2022/05/02 05:57:24;;;;;;;13.23;8.30;;;;;;;14.02;75.39;99448.72;4937854;29;20205;-89
2022/05/02 06:00:05;;;;;;;15.13;8.37;;;;;;;14.21;74.50;99448.44;4881762;29;20195;-89
2022/05/02 06:02:53;;;;;;;13.13;8.13;;;;;;;14.47;73.75;99450.13;4881278;29;20628;-90
2022/05/02 06:05:19;;;;;;;12.27;7.87;;;;;;;14.71;71.64;99448.25;4867072;29;20670;-89
2022/05/02 06:07:48;;;;;;;11.50;7.50;;;;;;;14.55;70.47;99407.91;4883775;29;20217;-90
2022/05/02 06:10:16;;;;;;;12.80;8.00;;;;;;;14.68;71.05;99447.31;4887403;29;20195;-89
2022/05/02 06:12:43;;;;;;;12.10;7.93;;;;;;;12.20;71.76;99089.63;4896125;29;20659;-89
2022/05/02 06:20:44;;;;;;;14.30;8.23;;;;;;;13.82;69.43;99210.56;4943189;29;20695;-88
2022/05/02 06:23:13;;;;;;;11.50;8.40;;;;;;;15.34;67.52;99466.09;4934692;29;20205;-90
2022/05/02 06:25:39;;;;;;;14.20;9.00;;;;;;;14.16;67.67;99249.72;4956890;29;20221;-90
2022/05/02 06:28:07;;;;;;;14.10;8.93;;;;;;;14.03;67.10;99216.28;4918945;29;20201;-88
2022/05/02 06:30:35;;;;;;;10.80;8.57;;;;;;;14.54;67.26;99288.09;4917582;29;20196;-87
2022/05/02 06:33:21;;;;;;;13.77;9.10;;;;;;;12.98;70.48;99129.31;4918798;29;20321;-87
2022/05/02 06:35:56;;;;;;;15.47;9.17;;;;;;;14.69;71.44;99442.28;4920082;28;20200;-87
2022/05/02 06:38:45;;;;;;;13.93;9.50;;;;;;;14.44;73.59;99442.38;5014117;28;20178;-87
2022/05/02 06:41:33;;;;;;;13.33;9.57;;;;;;;13.59;74.70;99307.47;5016723;28;20178;-87
2022/05/02 06:44:08;;;;;;;13.60;10.00;;;;;;;14.88;72.55;99441.09;5050207;28;20208;-86
2022/05/02 06:46:40;;;;;;;12.83;9.33;;;;;;;15.28;71.46;99440.44;5034840;28;20208;-84
2022/05/02 06:49:10;;;;;;;14.30;9.33;;;;;;;14.96;70.80;99354.59;5033773;28;20616;-86
2022/05/02 06:51:39;;;;;;;14.73;9.60;;;;;;;14.86;70.58;99355.22;5028902;28;20189;-85
2022/05/02 06:54:42;;;;;;;13.17;9.03;;;;;;;14.76;72.36;99428.84;5037158;28;20681;-87
2022/05/02 06:57:39;;;;;;;14.67;9.47;;;;;;;14.78;71.32;99376.25;5051595;28;20193;-89
2022/05/02 07:00:07;;;;;;;13.63;9.00;;;;;;;14.17;73.14;99320.19;5038187;28;20316;-88
2022/05/02 07:02:39;;;;;;;14.30;9.47;;;;;;;14.67;73.60;99438.78;5036675;28;20270;-94
2022/05/02 07:05:28;;;;;;;13.67;9.47;;;;;;;14.84;72.50;99435.84;5025376;28;20275;-89
2022/05/02 07:08:02;;;;;;;16.33;9.07;;;;;;;15.35;70.51;99432.13;5018437;28;20198;-87
2022/05/02 07:11:11;;;;;;;10.67;9.03;;;;;;;12.85;69.62;99045.09;5017973;28;20185;-88
2022/05/02 07:14:00;;;;;;;14.87;9.47;;;;;;;12.87;69.38;98978.25;4950913;29;20581;-88
2022/05/02 07:16:26;;;;;;;12.47;8.53;;;;;;;12.69;67.55;98900.69;4926041;29;20256;-89
2022/05/02 07:19:10;;;;;;;13.27;9.10;;;;;;;15.56;68.91;99425.03;4932493;29;20193;-88
2022/05/02 07:21:54;;;;;;;10.63;8.10;;;;;;;15.83;66.40;99420.56;4939421;29;20343;-90
2022/05/02 07:24:19;;;;;;;10.43;7.50;;;;;;;16.38;63.49;99420.06;4938374;29;20597;-89
2022/05/02 07:26:53;;;;;;;13.10;7.13;;;;;;;14.38;62.95;99088.19;4939068;29;20193;-90
2022/05/02 07:29:20;;;;;;;11.10;6.70;;;;;;;13.12;62.06;98887.47;4939346;29;20213;-87
2022/05/02 07:31:47;;;;;;;9.37;6.70;;;;;;;16.23;59.46;99422.31;4924646;29;20201;-88
2022/05/02 07:34:15;;;;;;;11.30;6.60;;;;;;;13.93;58.75;99029.38;4941029;29;20201;-87
2022/05/02 07:36:43;;;;;;;8.33;5.80;;;;;;;12.86;57.63;98852.03;4927603;29;20181;-89
2022/05/02 07:39:14;;;;;;;10.80;6.80;;;;;;;15.19;58.65;99261.69;4920255;29;20196;-87
2022/05/02 07:41:43;;;;;;;12.53;6.87;;;;;;;14.70;58.43;99150.94;4917682;29;20623;-89
2022/05/02 07:44:12;;;;;;;11.57;6.90;;;;;;;16.45;58.78;99404.03;4934161;29;20255;-90
2022/05/02 07:46:50;;;;;;;16.87;7.57;;;;;;;15.07;58.78;99180.69;4925004;29;20201;-89
2022/05/02 07:49:22;;;;;;;9.70;6.40;;;;;;;16.70;58.57;99405.41;4940034;29;20192;-89
2022/05/02 07:51:51;;;;;;;10.90;6.57;;;;;;;16.85;57.67;99372.47;4999536;28;20207;-87
2022/05/02 07:54:24;;;;;;;9.97;6.70;;;;;;;15.09;57.06;99082.13;5014636;28;20181;-89
2022/05/02 07:56:51;;;;;;;10.57;7.67;;;;;;;16.38;56.25;99163.69;5033515;28;20557;-87
2022/05/02 07:59:19;;;;;;;10.67;7.17;;;;;;;15.00;56.86;99017.34;5017969;28;20642;-88
2022/05/02 08:01:45;;;;;;;9.83;7.10;;;;;;;16.92;57.94;99374.28;5023068;28;20171;-89
2022/05/02 08:04:14;;;;;;;10.03;7.43;;;;;;;15.22;58.74;99070.47;5014246;28;20186;-87
2022/05/02 08:06:52;;;;;;;11.13;7.33;;;;;;;16.86;59.22;99350.31;5036839;28;20226;-87
2022/05/02 08:09:33;;;;;;;10.23;7.77;;;;;;;16.96;59.12;99347.94;5003012;28;20246;-89
2022/05/02 08:12:16;;;;;;;14.27;9.73;;;;;;;17.45;58.40;99331.69;5021314;28;20230;-87
2022/05/02 08:15:08;;;;;;;12.83;8.10;;;;;;;18.48;55.52;99333.13;5000968;28;20266;-88
2022/05/02 08:17:37;;;;;;;13.20;8.50;;;;;;;18.23;54.60;99326.81;4999165;28;20618;-88
2022/05/02 08:20:11;;;;;;;10.40;8.03;;;;;;;17.12;55.52;99198.13;5003645;28;20167;-86
2022/05/02 08:28:49;;;;;;;7.60;6.10;;;;;;;17.81;49.89;99264.81;4954078;29;20171;-88
2022/05/02 08:31:24;;;;;;;9.27;5.90;;;;;;;17.91;51.21;99328.09;4954271;29;20578;-87
2022/05/02 08:34:07;;;;;;;8.77;5.63;;;;;;;17.21;50.35;99131.75;4956270;29;20180;-88
2022/05/02 08:36:50;;;;;;;10.43;4.90;;;;;;;17.47;49.14;99145.72;4938955;29;20189;-87
2022/05/02 08:39:24;;;;;;;7.50;4.50;;;;;;;16.55;46.48;98996.22;4953215;28;20308;-89
2022/05/02 08:42:30;;;;;;;7.50;4.60;;;;;;;18.35;46.48;99330.38;4953935;28;20197;-88
2022/05/02 08:45:35;;;;;;;6.50;4.27;;;;;;;18.69;45.50;99332.47;4952149;29;20312;-89
2022/05/02 08:49:32;;;;;;;7.87;4.27;;;;;;;18.06;44.85;99178.84;4896370;29;20198;-88
2022/05/02 08:52:05;;;;;;;8.27;4.50;;;;;;;18.11;44.88;99157.56;4897923;29;20647;-87
2022/05/02 08:54:55;;;;;;;6.03;4.87;;;;;;;18.31;46.99;99329.47;4898335;29;20198;-88
2022/05/02 08:57:24;;;;;;;8.47;5.90;;;;;;;18.37;49.10;99333.81;4898220;29;20198;-92
2022/05/02 08:59:55;;;;;;;11.67;6.43;;;;;;;19.07;48.56;99318.31;4898430;29;20171;-86
2022/05/02 09:02:57;;;;;;;7.70;5.83;;;;;;;19.43;47.35;99326.31;4908881;29;20693;-88
2022/05/02 09:05:46;;;;;;;8.43;5.73;;;;;;;20.02;46.03;99320.69;4933886;29;20224;-89
2022/05/02 09:08:28;;;;;;;11.00;6.63;;;;;;;19.60;46.25;99323.00;4933249;29;20710;-88
2022/05/02 09:11:31;;;;;;;7.97;5.80;;;;;;;18.75;46.48;99296.63;4933434;29;20587;-89
2022/05/02 09:14:24;;;;;;;8.93;6.20;;;;;;;19.17;47.66;99329.50;4933910;29;20642;-88
2022/05/02 09:17:25;;;;;;;9.57;6.33;;;;;;;18.60;48.73;99301.59;4933997;29;20187;-89
2022/05/02 09:20:25;;;;;;;11.03;6.13;;;;;;;19.23;47.36;99315.00;4934527;29;20264;-86
2022/05/02 09:22:56;;;;;;;9.37;5.30;;;;;;;19.81;45.96;99312.84;4937474;29;20176;-88
2022/05/02 09:25:41;;;;;;;7.17;5.60;;;;;;;20.03;45.25;99312.09;5001746;28;20206;-89
2022/05/02 09:28:20;;;;;;;9.17;5.67;;;;;;;19.20;46.92;99260.25;4957634;29;20188;-89
2022/05/02 09:31:36;;;;;;;7.53;5.20;;;;;;;19.11;47.55;99304.66;4957237;29;20668;-88
2022/05/02 09:34:17;;;;;;;9.10;5.20;;;;;;;19.67;46.58;99314.47;4860484;29;20252;-87
2022/05/02 09:36:46;;;;;;;8.77;5.30;;;;;;;19.72;46.01;99313.66;4847454;29;20187;-88
2022/05/02 09:39:22;;;;;;;6.27;5.10;;;;;;;18.82;46.11;99180.41;4863192;29;20592;-88
2022/05/02 09:42:08;;;;;;;8.13;5.30;;;;;;;20.25;45.15;99306.22;4845953;29;20227;-89
2022/05/02 09:51:01;;;;;;;14.03;7.07;;;;;;;20.68;43.01;99298.63;4862106;29;20174;-87
2022/05/02 09:53:53;;;;;;;19.40;12.67;;;;;;;20.41;42.46;99297.69;4864211;29;20653;-87
2022/05/02 09:56:38;;;;;;;6.80;5.37;;;;;;;20.20;43.07;99292.47;4862398;29;20167;-89
2022/05/02 09:59:31;;;;;;;6.47;5.10;;;;;;;20.20;43.48;99286.47;4862243;29;20570;-87
2022/05/02 10:02:18;;;;;;;6.37;4.47;;;;;;;19.99;43.16;99271.84;4824191;29;20197;-89
2022/05/02 10:05:07;;;;;;;6.50;4.00;;;;;;;19.91;41.24;99217.00;4862826;29;20658;-88
2022/05/02 10:08:01;;;;;;;5.80;4.00;;;;;;;20.35;41.58;99205.13;4916632;29;20182;-88
2022/05/02 10:10:56;;;;;;;8.83;4.63;;;;;;;18.91;43.02;99069.31;4901192;29;20154;-89
2022/05/02 10:13:24;;;;;;;6.43;4.50;;;;;;;20.01;43.53;99264.97;4900762;29;20197;-89
2022/05/02 10:16:27;;;;;;;7.67;3.97;;;;;;;20.53;42.29;99259.16;4918090;29;20155;-87
2022/05/02 10:19:15;;;;;;;7.07;4.80;;;;;;;20.39;41.65;99205.97;4918385;29;20189;-87
2022/05/02 10:22:02;;;;;;;5.67;4.23;;;;;;;20.50;42.77;99246.28;4950526;29;20615;-87
2022/05/02 10:24:46;;;;;;;7.43;4.53;;;;;;;20.29;43.34;99250.53;4954693;28;20231;-87
2022/05/02 10:27:36;;;;;;;7.63;4.60;;;;;;;19.90;44.34;99243.53;4940695;29;20197;-89
2022/05/02 10:30:04;;;;;;;7.03;4.30;;;;;;;19.57;44.05;99240.81;4938900;29;20618;-89
2022/05/02 10:32:56;;;;;;;7.77;3.93;;;;;;;19.95;42.79;99239.25;4942304;29;20185;-88
2022/05/02 10:35:23;;;;;;;6.27;4.33;;;;;;;20.74;40.73;99226.59;4923739;29;20276;-89
2022/05/02 10:38:00;;;;;;;6.40;3.90;;;;;;;20.58;41.56;99221.44;4959480;28;20172;-90
2022/05/02 10:40:44;;;;;;;5.57;4.13;;;;;;;19.62;40.59;99043.91;5001937;28;20246;-87
2022/05/02 10:43:16;;;;;;;4.60;3.83;;;;;;;20.98;39.93;99216.31;5016156;28;20186;-87
2022/05/02 10:45:42;;;;;;;7.07;3.80;;;;;;;18.91;40.92;98923.94;5016221;28;20269;-86
2022/05/02 10:48:11;;;;;;;6.10;4.10;;;;;;;20.19;42.38;99208.47;4985426;28;20188;-89
2022/05/02 10:50:39;;;;;;;5.10;3.53;;;;;;;19.78;41.17;99076.47;4999793;28;20222;-87
2022/05/02 10:53:46;;;;;;;6.70;3.77;;;;;;;19.72;40.98;99045.66;4999607;28;20191;-89
2022/05/02 10:56:29;;;;;;;6.23;3.60;;;;;;;19.35;41.46;99047.25;4976955;28;20596;-90
2022/05/02 10:59:01;;;;;;;6.63;3.73;;;;;;;19.48;40.51;99022.50;4983185;28;20310;-88
2022/05/02 11:01:39;;;;;;;3.93;3.53;;;;;;;20.61;40.05;99194.84;4960240;28;20660;-88
2022/05/02 11:04:28;;;;;;;4.67;3.70;;;;;;;20.58;38.22;99085.09;4957558;28;20211;-88
2022/05/02 11:07:14;;;;;;;4.53;3.67;;;;;;;19.81;37.80;99032.81;4948459;29;20205;-88
2022/05/02 11:09:47;;;;;;;5.57;4.00;;;;;;;20.69;38.61;99206.00;4953629;28;20906;-88
2022/05/02 11:12:15;;;;;;;5.70;3.50;;;;;;;21.31;37.49;99190.53;4962372;28;20913;-87
2022/05/02 11:15:09;;;;;;;9.57;4.13;;;;;;;21.89;37.67;99200.66;4941899;28;20219;-90
2022/05/02 11:17:43;;;;;;;5.10;4.00;;;;;;;22.29;36.86;99207.28;4973246;28;20223;-88
2022/05/02 11:23:17;;;;;;;7.17;4.00;;;;;;;22.65;35.75;99204.47;4972379;28;20194;-88
2022/05/02 11:26:13;;;;;;;5.87;4.20;;;;;;;22.60;33.52;99071.16;4956744;28;20243;-86
2022/05/02 11:29:03;;;;;;;5.60;4.20;;;;;;;22.75;34.43;99206.09;4958912;28;20278;-89
2022/05/02 11:31:32;;;;;;;7.73;4.40;;;;;;;22.77;34.33;99211.28;4972187;28;20184;-90
2022/05/02 11:34:20;;;;;;;5.97;4.50;;;;;;;22.53;35.08;99214.84;4970168;28;20188;-89
2022/05/02 11:36:53;;;;;;;5.83;4.57;;;;;;;20.44;36.03;98919.69;4979007;28;20196;-88
2022/05/02 11:39:25;;;;;;;8.10;4.73;;;;;;;21.76;36.18;99083.81;4980680;28;20191;-89
2022/05/02 11:41:56;;;;;;;7.30;4.40;;;;;;;21.45;36.77;99061.69;4966935;28;20306;-88
2022/05/02 11:44:31;;;;;;;7.23;4.53;;;;;;;22.09;37.18;99160.97;4973784;28;20227;-88
2022/05/02 11:47:16;;;;;;;5.50;4.23;;;;;;;22.75;36.20;99210.41;4973665;28;20180;-87
2022/05/02 11:50:06;;;;;;;4.90;4.40;;;;;;;23.76;34.15;99232.66;4972594;28;20590;-88
2022/05/02 11:52:35;;;;;;;8.10;4.60;;;;;;;23.06;33.01;99130.94;4972724;28;20216;-87
2022/05/02 11:55:04;;;;;;;6.00;4.50;;;;;;;22.52;32.88;99058.34;4972559;28;20200;-85
2022/05/02 11:57:42;;;;;;;5.27;4.77;;;;;;;23.68;33.28;99221.56;4973661;28;20183;-91
2022/05/02 12:00:07;;;;;;;6.53;4.60;;;;;;;22.88;34.50;99215.44;4972135;28;20198;-90
2022/05/02 12:03:04;;;;;;;7.77;4.73;;;;;;;22.79;34.63;99214.69;4974921;28;20626;-88
2022/05/02 12:05:43;;;;;;;6.83;4.80;;;;;;;23.10;34.57;99212.69;4972616;28;20298;-88
2022/05/02 12:08:20;;;;;;;8.10;4.80;;;;;;;22.60;35.41;99213.97;4975005;28;20207;-88
2022/05/02 12:10:47;;;;;;;4.70;4.23;;;;;;;22.25;36.18;99165.16;4968039;28;20187;-89
2022/05/02 12:13:24;;;;;;;6.30;4.37;;;;;;;22.07;36.22;99141.22;4968121;28;20318;-88
2022/05/02 12:16:09;;;;;;;7.40;5.00;;;;;;;20.34;36.68;98891.44;5007518;28;20192;-87
2022/05/02 12:18:45;;;;;;;6.23;5.10;;;;;;;22.18;36.79;99209.94;4988342;28;20720;-89
2022/05/02 12:21:38;;;;;;;5.73;4.80;;;;;;;20.85;38.10;99194.84;4989907;28;20266;-89
2022/05/02 12:24:06;;;;;;;6.10;5.27;;;;;;;18.24;37.90;98764.78;4980745;28;20313;-86
2022/05/02 12:26:34;;;;;;;6.17;4.90;;;;;;;19.86;39.36;99177.59;4993067;28;20234;-87
2022/05/02 12:29:11;;;;;;;6.57;4.73;;;;;;;18.46;39.94;98931.47;4990532;28;20195;-88